Hovedside
METAR-TAF:

METAR-TAF

Lufthavner :

Tromsø, Norge

Tromsø lufthavn. Langnes

breddegrad: 69-41N, lengdegrad: 018-55E, høyde over havet: 1 m

Gjeldene værobservasjon

Denne rapporten ble laget for 12 minutter siden, klokken 07:20 UTC
Vind 3 kt fra Vest-sørvest
Temperatur 4°C
Luftfuktighet 93%
Trykk 998 hPa
Sikt 10 km eller mer
Få skyer i en høyde av 400 ft
Spredte skyer i en høyde av 4500 ft

METAR: ENTC 210720Z 24003KT 9999 FEW004 SCT045 04/03 Q0998 NOSIG RMK WIND 2600FT 16003KT

Tid: 09:32 (07:32 UTC)

Varsel

Varsel gyldig fra 21. klokken 06 UTC til 22. klokken 06 UTC
Vind 5 kt fra skiftende retning
Sikt 10 km eller mer
Få skyer i en høyde av 500 ft
Brutte skyer i en høyde av 4000 ft

TAF: ENTC 2106/2206 VRB05KT 9999 FEW005 BKN040

Værobservasjoner og værvarsel for over 4000 flyplasser (METAR- og TAF-rapporter).

Tilgjengelige stasjoner er representert av de røde og gule prikkene på kartet.

Hold musepekeren over prikken for å se navnet på stasjonen.

Klikk så for å se værobservasjoner og -varsler.

For å forandre kartet kan du klikke på den grønne knappen med svart kryss for å zoome inn, på den grønne knappen med strek for å zoome ut, eller på de grønne pilene for å se tilstøtende kart.


METAR-TAF: